Time;durP1;ratioP1;P1;durP2;ratioP2;P2;SDS_P1;SDS_P2;PMS_P1;PMS_P2;Temp;Humidity;BMP_temperature;BMP_pressure;BME280_temperature;BME280_humidity;BME280_pressure;Samples;Min_cycle;Max_cycle;Signal;HPM_P1;HPM_P2
2023/09/08 00:01:15;;;;;;;0.38;0.38;;;19.00;99.90;;;;;;5093848;28;20108;-62
2023/09/08 00:03:41;;;;;;;0.70;0.70;;;19.30;99.90;;;;;;5093606;28;20056;-63
2023/09/08 00:06:07;;;;;;;1.38;0.55;;;19.20;99.90;;;;;;5093832;28;20059;-63
2023/09/08 00:08:32;;;;;;;1.00;0.88;;;19.00;99.90;;;;;;5093792;28;20093;-62
2023/09/08 00:10:58;;;;;;;0.88;0.73;;;18.80;99.90;;;;;;5092542;28;20048;-63
2023/09/08 00:13:24;;;;;;;0.47;0.40;;;18.90;99.90;;;;;;5093692;28;20055;-62
2023/09/08 00:15:50;;;;;;;2.75;1.80;;;19.10;99.90;;;;;;5092277;28;20059;-62
2023/09/08 00:18:15;;;;;;;0.85;0.85;;;19.00;99.90;;;;;;5093380;28;20089;-62
2023/09/08 00:20:41;;;;;;;1.33;1.15;;;19.00;99.90;;;;;;5093637;28;20043;-63
2023/09/08 00:23:07;;;;;;;1.67;1.58;;;19.10;99.90;;;;;;5093372;28;20055;-63
2023/09/08 00:25:34;;;;;;;0.85;0.85;;;19.00;99.90;;;;;;5093434;28;20052;-62
2023/09/08 00:28:00;;;;;;;0.95;0.88;;;19.00;99.90;;;;;;5093445;28;20091;-62
2023/09/08 00:30:26;;;;;;;0.55;0.55;;;18.50;99.90;;;;;;5093372;28;20140;-63
2023/09/08 00:32:51;;;;;;;0.68;0.68;;;19.00;99.90;;;;;;5093372;28;20032;-64
2023/09/08 00:35:17;;;;;;;0.88;0.65;;;18.90;99.90;;;;;;5093266;28;20446;-63
2023/09/08 00:37:43;;;;;;;0.50;0.43;;;18.60;99.90;;;;;;5093254;28;20571;-63
2023/09/08 00:40:10;;;;;;;0.30;0.30;;;18.90;99.90;;;;;;5093252;28;20101;-63
2023/09/08 00:42:36;;;;;;;0.55;0.50;;;19.10;99.90;;;;;;5093212;28;20128;-63
2023/09/08 00:45:02;;;;;;;0.60;0.60;;;18.90;99.90;;;;;;5093298;28;20040;-62
2023/09/08 00:47:28;;;;;;;0.40;0.40;;;18.80;99.90;;;;;;5093046;28;20115;-62
2023/09/08 00:49:54;;;;;;;0.60;0.60;;;18.50;99.90;;;;;;5092951;28;20485;-62
2023/09/08 00:52:19;;;;;;;0.40;0.40;;;18.80;99.90;;;;;;5092997;28;20090;-62
2023/09/08 00:54:45;;;;;;;1.35;1.20;;;18.50;99.90;;;;;;5092956;28;20040;-62
2023/09/08 00:57:11;;;;;;;1.48;1.10;;;18.60;99.90;;;;;;5092911;28;20136;-62
2023/09/08 00:59:37;;;;;;;0.47;0.47;;;18.70;99.90;;;;;;5092803;28;20063;-62
2023/09/08 01:02:03;;;;;;;0.30;0.30;;;18.40;99.90;;;;;;5092748;28;20048;-63
2023/09/08 01:04:29;;;;;;;0.52;0.52;;;18.40;99.90;;;;;;5092414;28;20139;-63
2023/09/08 01:06:56;;;;;;;1.40;1.30;;;18.50;99.90;;;;;;5092660;28;20056;-63
2023/09/08 01:09:24;;;;;;;0.47;0.45;;;18.20;99.90;;;;;;5092528;28;20062;-62
2023/09/08 01:11:50;;;;;;;2.58;0.80;;;18.60;99.90;;;;;;5092526;28;20454;-62
2023/09/08 01:14:19;;;;;;;1.17;0.80;;;18.10;99.90;;;;;;5092526;28;20048;-62
2023/09/08 01:16:45;;;;;;;2.38;1.15;;;18.20;99.90;;;;;;5092506;28;20389;-62
2023/09/08 01:19:14;;;;;;;1.10;1.02;;;18.20;99.90;;;;;;5092388;28;20039;-63
2023/09/08 01:22:06;;;;;;;0.80;0.80;;;18.30;99.90;;;;;;5092373;28;20048;-62
2023/09/08 01:24:53;;;;;;;1.45;1.20;;;18.00;99.90;;;;;;5092283;28;20130;-63
2023/09/08 01:27:21;;;;;;;0.43;0.43;;;18.10;99.90;;;;;;5092236;28;20048;-62
2023/09/08 01:29:51;;;;;;;2.13;1.15;;;17.90;99.90;;;;;;5091620;28;20051;-63
2023/09/08 01:32:17;;;;;;;1.30;0.93;;;17.80;99.90;;;;;;5092188;28;20139;-62
2023/09/08 01:34:43;;;;;;;0.90;0.80;;;17.90;99.90;;;;;;5092167;28;20044;-62
2023/09/08 01:37:09;;;;;;;0.40;0.40;;;17.90;99.90;;;;;;5092190;28;20617;-62
2023/09/08 01:39:35;;;;;;;1.38;0.68;;;18.00;99.90;;;;;;5092087;28;20399;-62
2023/09/08 01:42:01;;;;;;;0.57;0.57;;;17.70;99.90;;;;;;5092015;28;20055;-63
2023/09/08 01:44:27;;;;;;;3.50;0.80;;;17.90;99.90;;;;;;5073775;28;20044;-63
2023/09/08 01:46:56;;;;;;;0.77;0.77;;;17.80;99.90;;;;;;5092007;28;20055;-62
2023/09/08 01:49:23;;;;;;;3.95;2.75;;;17.70;99.90;;;;;;5092203;28;20110;-63
2023/09/08 01:51:48;;;;;;;0.50;0.50;;;17.90;99.90;;;;;;5092160;28;20048;-63
2023/09/08 01:54:14;;;;;;;1.67;1.38;;;17.60;99.90;;;;;;5091885;28;20047;-64
2023/09/08 01:56:40;;;;;;;0.52;0.52;;;17.70;99.90;;;;;;5092214;28;20131;-63
2023/09/08 01:59:05;;;;;;;0.43;0.43;;;17.60;99.90;;;;;;5092141;28;20044;-63
2023/09/08 02:01:31;;;;;;;1.08;0.95;;;17.50;99.90;;;;;;5092182;28;20052;-62
2023/09/08 02:03:57;;;;;;;1.25;1.15;;;17.60;99.90;;;;;;5091537;28;20052;-63
2023/09/08 02:06:22;;;;;;;0.65;0.63;;;17.80;99.90;;;;;;5091793;28;20089;-63
2023/09/08 02:08:48;;;;;;;0.57;0.57;;;17.80;99.90;;;;;;5091751;28;20052;-62
2023/09/08 02:11:13;;;;;;;0.40;0.40;;;17.50;99.90;;;;;;5091732;28;20055;-63
2023/09/08 02:13:42;;;;;;;1.40;0.80;;;17.50;99.90;;;;;;5091757;28;20400;-63
2023/09/08 02:16:12;;;;;;;0.40;0.40;;;17.90;99.90;;;;;;5091788;28;20097;-63
2023/09/08 02:18:38;;;;;;;0.82;0.82;;;17.60;99.90;;;;;;5091853;28;20067;-63
2023/09/08 02:21:04;;;;;;;2.10;1.25;;;17.90;99.90;;;;;;5091982;28;20480;-63
2023/09/08 02:23:30;;;;;;;0.93;0.65;;;17.50;99.90;;;;;;5091785;28;20048;-63
2023/09/08 02:25:55;;;;;;;2.78;1.23;;;17.40;99.90;;;;;;5091596;28;20051;-63
2023/09/08 02:28:21;;;;;;;0.50;0.50;;;17.30;99.90;;;;;;5091637;28;20051;-63
2023/09/08 02:30:47;;;;;;;0.50;0.50;;;17.60;99.90;;;;;;5091577;28;20044;-63
2023/09/08 02:33:12;;;;;;;1.73;1.63;;;17.50;99.90;;;;;;5091571;28;20037;-63
2023/09/08 02:35:38;;;;;;;1.33;1.23;;;17.40;99.90;;;;;;5091590;28;20097;-63
2023/09/08 02:38:04;;;;;;;1.10;1.00;;;17.20;99.90;;;;;;5091819;28;20047;-62
2023/09/08 02:40:30;;;;;;;0.77;0.68;;;17.20;99.90;;;;;;5093842;28;20047;-62
2023/09/08 02:42:55;;;;;;;1.85;0.70;;;17.40;99.90;;;;;;5095503;28;20047;-63
2023/09/08 02:45:21;;;;;;;1.27;0.80;;;17.40;99.90;;;;;;5095789;28;20210;-62
2023/09/08 02:47:47;;;;;;;0.63;0.60;;;17.20;99.90;;;;;;5095468;28;20050;-63
2023/09/08 02:50:12;;;;;;;0.75;0.75;;;17.10;99.90;;;;;;5095559;28;20127;-63
2023/09/08 02:52:38;;;;;;;0.55;0.55;;;17.30;99.90;;;;;;5095637;28;20047;-63
2023/09/08 02:55:04;;;;;;;1.55;0.85;;;17.30;99.90;;;;;;5095543;28;20082;-62
2023/09/08 02:57:29;;;;;;;5.03;1.33;;;17.20;99.90;;;;;;5095339;28;20769;-63
2023/09/08 02:59:56;;;;;;;0.85;0.85;;;17.00;99.90;;;;;;5095530;28;20055;-63
2023/09/08 03:02:24;;;;;;;1.17;0.98;;;16.70;99.90;;;;;;5094673;28;20519;-63
2023/09/08 03:04:50;;;;;;;2.65;0.50;;;17.40;99.90;;;;;;5095024;28;20060;-62
2023/09/08 03:07:16;;;;;;;0.73;0.50;;;16.90;99.90;;;;;;5094933;28;20056;-62
2023/09/08 03:09:41;;;;;;;0.85;0.85;;;17.10;99.90;;;;;;5094973;28;20048;-63
2023/09/08 03:12:07;;;;;;;1.23;0.68;;;17.40;99.90;;;;;;5094914;28;20052;-63
2023/09/08 03:14:33;;;;;;;0.38;0.38;;;17.00;99.90;;;;;;5094808;28;20056;-63
2023/09/08 03:16:58;;;;;;;0.65;0.65;;;16.90;99.90;;;;;;5094852;28;20071;-63
2023/09/08 03:19:24;;;;;;;1.02;0.95;;;16.80;99.90;;;;;;5094700;28;20040;-62
2023/09/08 03:21:50;;;;;;;0.85;0.85;;;17.20;99.90;;;;;;5094646;28;20151;-63
2023/09/08 03:24:16;;;;;;;0.82;0.80;;;17.00;99.90;;;;;;5094598;28;20094;-63
2023/09/08 03:26:41;;;;;;;1.00;0.90;;;16.90;99.90;;;;;;5094645;28;20051;-63
2023/09/08 03:29:07;;;;;;;0.93;0.75;;;17.00;99.90;;;;;;5094874;28;20479;-62
2023/09/08 03:31:32;;;;;;;;;;;16.80;99.90;;;;;;5095057;28;20531;-63
2023/09/08 03:33:58;;;;;;;0.57;0.57;;;16.90;99.90;;;;;;5094499;28;19967;-63
2023/09/08 03:36:24;;;;;;;1.45;0.50;;;16.70;99.90;;;;;;5094437;28;20126;-63
2023/09/08 03:38:50;;;;;;;0.60;0.60;;;16.70;99.90;;;;;;5094408;28;20048;-63
2023/09/08 03:41:16;;;;;;;1.48;0.88;;;16.70;99.90;;;;;;5094327;28;20054;-62
2023/09/08 03:43:41;;;;;;;1.00;1.00;;;16.80;99.90;;;;;;5094214;28;20476;-62
2023/09/08 03:46:07;;;;;;;1.13;0.95;;;17.00;99.90;;;;;;5094195;28;20051;-63
2023/09/08 03:48:33;;;;;;;1.58;1.48;;;16.60;99.90;;;;;;5094110;28;20087;-62
2023/09/08 03:50:58;;;;;;;;;;;16.90;99.90;;;;;;5094229;28;20051;-63
2023/09/08 03:53:24;;;;;;;0.60;0.60;;;16.80;99.90;;;;;;5093857;28;19976;-63
2023/09/08 03:55:50;;;;;;;0.95;0.65;;;16.50;99.90;;;;;;5093870;28;20051;-62
2023/09/08 03:58:16;;;;;;;1.38;0.77;;;16.60;99.90;;;;;;5093851;28;20059;-62
2023/09/08 04:00:42;;;;;;;1.25;0.90;;;16.60;99.90;;;;;;5093983;28;20047;-62
2023/09/08 04:03:09;;;;;;;0.82;0.82;;;16.60;99.90;;;;;;5093915;28;20090;-63
2023/09/08 04:05:34;;;;;;;1.20;1.10;;;16.80;99.90;;;;;;5093811;28;20479;-63
2023/09/08 04:08:01;;;;;;;0.63;0.63;;;16.50;99.90;;;;;;5093870;28;20120;-62
2023/09/08 04:10:26;;;;;;;0.68;0.68;;;16.50;99.90;;;;;;5093808;28;20051;-62
2023/09/08 04:12:52;;;;;;;0.73;0.63;;;16.40;99.90;;;;;;5093753;28;20124;-62
2023/09/08 04:15:18;;;;;;;0.85;0.85;;;16.20;99.90;;;;;;5093718;28;20051;-62
2023/09/08 04:17:45;;;;;;;0.70;0.70;;;16.30;99.90;;;;;;5093746;28;20043;-63
2023/09/08 04:20:11;;;;;;;0.63;0.63;;;16.20;99.90;;;;;;5093701;28;20416;-63
2023/09/08 04:22:36;;;;;;;0.50;0.50;;;16.50;99.90;;;;;;5093467;28;20058;-63
2023/09/08 04:25:02;;;;;;;0.57;0.57;;;14.70;99.90;;;;;;5093578;28;20040;-62
2023/09/08 04:27:28;;;;;;;0.70;0.57;;;16.40;99.90;;;;;;5093511;28;20060;-62
2023/09/08 04:29:54;;;;;;;0.47;0.47;;;16.40;99.90;;;;;;5093471;28;20164;-62
2023/09/08 04:32:19;;;;;;;1.70;0.80;;;16.20;99.90;;;;;;5093684;28;20040;-62
2023/09/08 04:34:45;;;;;;;0.93;0.75;;;16.10;99.90;;;;;;5093472;28;20395;-62
2023/09/08 04:37:11;;;;;;;;;;;16.40;99.90;;;;;;5093742;28;20868;-62
2023/09/08 04:39:39;;;;;;;0.85;0.85;;;16.10;99.90;;;;;;5093270;28;19924;-62
2023/09/08 04:42:05;;;;;;;1.33;1.23;;;16.00;99.90;;;;;;5093124;28;20484;-63
2023/09/08 04:44:31;;;;;;;0.77;0.77;;;16.20;99.90;;;;;;5093019;28;20044;-62
2023/09/08 04:46:56;;;;;;;;;;;16.10;99.90;;;;;;5093567;28;20080;-62
2023/09/08 04:49:22;;;;;;;1.08;1.02;;;16.10;99.90;;;;;;5092969;28;19928;-63
2023/09/08 04:51:47;;;;;;;;;;;15.80;99.90;;;;;;5093345;28;20158;-63
2023/09/08 04:54:13;;;;;;;2.15;1.13;;;16.20;99.90;;;;;;5092878;28;19931;-62
2023/09/08 04:56:40;;;;;;;;;;;16.00;99.90;;;;;;5093340;28;20121;-63
2023/09/08 04:59:06;;;;;;;0.55;0.55;;;16.30;99.90;;;;;;5092889;28;19927;-62
2023/09/08 05:01:32;;;;;;;;;;;16.30;99.90;;;;;;5093210;28;20047;-62
2023/09/08 05:04:02;;;;;;;0.60;0.60;;;16.00;99.90;;;;;;5091688;28;19928;-62
2023/09/08 05:06:27;;;;;;;0.47;0.47;;;16.30;99.90;;;;;;5092682;28;20138;-63
2023/09/08 05:08:53;;;;;;;0.70;0.70;;;16.20;99.90;;;;;;5092934;28;20139;-62
2023/09/08 05:11:19;;;;;;;0.93;0.93;;;16.10;99.90;;;;;;5092647;28;20131;-63
2023/09/08 05:13:45;;;;;;;;;;;16.30;99.90;;;;;;5093037;28;20083;-62
2023/09/08 05:16:11;;;;;;;1.38;0.70;;;15.80;99.90;;;;;;5091250;28;20018;-62
2023/09/08 05:18:40;;;;;;;;;;;16.10;99.90;;;;;;5092898;28;20083;-62
2023/09/08 05:21:07;;;;;;;1.17;1.08;;;16.10;99.90;;;;;;5092141;28;20375;-63
2023/09/08 05:23:33;;;;;;;0.47;0.47;;;15.90;99.90;;;;;;5092339;28;20043;-62
2023/09/08 05:25:59;;;;;;;0.68;0.68;;;16.20;99.90;;;;;;5092311;28;20051;-63
2023/09/08 05:28:25;;;;;;;1.17;0.95;;;15.90;99.90;;;;;;5092317;28;20093;-63
2023/09/08 05:30:51;;;;;;;1.00;0.82;;;16.00;99.90;;;;;;5092329;28;20052;-62
2023/09/08 05:33:17;;;;;;;1.13;0.95;;;16.00;99.90;;;;;;5092196;28;20048;-63
2023/09/08 05:35:44;;;;;;;0.73;0.73;;;16.00;99.90;;;;;;5092422;28;20193;-63
2023/09/08 05:38:10;;;;;;;0.57;0.57;;;16.00;99.90;;;;;;5092174;28;20056;-63
2023/09/08 05:40:36;;;;;;;1.00;0.80;;;16.30;99.90;;;;;;5092081;28;20051;-62
2023/09/08 05:43:02;;;;;;;;;;;16.00;99.90;;;;;;5092390;28;20399;-63
2023/09/08 05:45:27;;;;;;;1.05;1.05;;;16.20;99.90;;;;;;5092279;28;20023;-63
2023/09/08 05:47:53;;;;;;;0.68;0.68;;;16.00;99.90;;;;;;5091975;28;20127;-62
2023/09/08 05:50:19;;;;;;;;;;;16.30;99.90;;;;;;5092485;28;20044;-63
2023/09/08 05:52:44;;;;;;;0.40;0.40;;;16.20;99.90;;;;;;5091673;28;20014;-63
2023/09/08 05:55:10;;;;;;;;;;;16.10;99.90;;;;;;5092359;28;20129;-62
2023/09/08 05:57:36;;;;;;;0.47;0.47;;;16.30;99.90;;;;;;5091915;28;19924;-62
2023/09/08 06:00:06;;;;;;;0.38;0.38;;;16.40;99.90;;;;;;5091888;28;20597;-63
2023/09/08 06:02:32;;;;;;;1.27;1.17;;;16.00;99.90;;;;;;5091747;28;20055;-62
2023/09/08 06:04:58;;;;;;;0.60;0.60;;;16.30;99.90;;;;;;5091341;28;20064;-62
2023/09/08 06:07:23;;;;;;;2.78;1.15;;;16.40;99.90;;;;;;5091799;28;20066;-63
2023/09/08 06:09:49;;;;;;;;;;;16.50;99.90;;;;;;5092560;28;20047;-63
2023/09/08 06:12:15;;;;;;;0.38;0.38;;;16.40;99.90;;;;;;5091787;28;19924;-62
2023/09/08 06:14:40;;;;;;;;;;;16.40;99.90;;;;;;5091923;28;20063;-63
2023/09/08 06:17:06;;;;;;;0.55;0.55;;;16.60;99.90;;;;;;5090794;28;19920;-63
2023/09/08 06:19:31;;;;;;;;;;;16.50;99.90;;;;;;5092665;28;20040;-63
2023/09/08 06:21:57;;;;;;;1.05;0.80;;;16.70;99.90;;;;;;5091997;28;20318;-62
2023/09/08 06:24:24;;;;;;;0.30;0.30;;;16.60;99.90;;;;;;5091843;28;20052;-63
2023/09/08 06:26:50;;;;;;;0.57;0.57;;;17.30;99.90;;;;;;5091971;28;20048;-63
2023/09/08 06:29:15;;;;;;;1.23;1.13;;;16.90;99.90;;;;;;5091781;28;20059;-63
2023/09/08 06:31:41;;;;;;;0.80;0.70;;;17.00;99.90;;;;;;5091955;28;20048;-63
2023/09/08 06:34:06;;;;;;;;;;;17.20;99.90;;;;;;5092309;28;20093;-63
2023/09/08 06:36:32;;;;;;;0.82;0.80;;;17.30;99.90;;;;;;5091734;28;20052;-62
2023/09/08 06:38:58;;;;;;;0.63;0.63;;;17.60;99.90;;;;;;5091630;28;20237;-62
2023/09/08 06:41:23;;;;;;;2.22;0.60;;;17.60;99.90;;;;;;5091556;28;20189;-62
2023/09/08 06:43:49;;;;;;;0.68;0.68;;;17.40;99.90;;;;;;5091409;28;20395;-62
2023/09/08 06:46:15;;;;;;;;;;;17.70;99.90;;;;;;5091860;28;20452;-63
2023/09/08 06:48:41;;;;;;;0.68;0.68;;;17.80;99.90;;;;;;5091384;28;19920;-63
2023/09/08 06:51:06;;;;;;;1.02;0.90;;;18.20;99.90;;;;;;5091426;28;20048;-62
2023/09/08 06:53:32;;;;;;;0.82;0.52;;;17.80;99.90;;;;;;5091383;28;20044;-62
2023/09/08 06:55:58;;;;;;;0.60;0.60;;;18.30;99.90;;;;;;5091346;28;20090;-62
2023/09/08 06:58:24;;;;;;;0.50;0.50;;;18.20;99.90;;;;;;5091318;28;20566;-63
2023/09/08 07:00:54;;;;;;;0.45;0.45;;;18.40;99.90;;;;;;5091256;28;20052;-63
2023/09/08 07:03:22;;;;;;;0.40;0.40;;;18.70;99.90;;;;;;5091212;28;20059;-63
2023/09/08 07:05:49;;;;;;;0.40;0.40;;;18.60;99.90;;;;;;5091257;28;20454;-63
2023/09/08 07:08:15;;;;;;;1.73;0.85;;;18.60;99.90;;;;;;5089873;28;20056;-63
2023/09/08 07:10:40;;;;;;;0.30;0.30;;;19.00;99.90;;;;;;5091180;28;20098;-63
2023/09/08 07:13:06;;;;;;;1.13;1.08;;;18.70;99.90;;;;;;5091179;28;20097;-63
2023/09/08 07:15:32;;;;;;;1.23;0.73;;;19.30;99.90;;;;;;5091156;28;20105;-62
2023/09/08 07:17:57;;;;;;;0.75;0.75;;;19.40;99.90;;;;;;5091067;28;20079;-63
2023/09/08 07:20:23;;;;;;;0.80;0.77;;;19.30;99.90;;;;;;5091116;28;20058;-62
2023/09/08 07:22:49;;;;;;;3.53;0.75;;;19.20;99.90;;;;;;5090989;28;20048;-62
2023/09/08 07:25:14;;;;;;;0.73;0.63;;;19.30;99.90;;;;;;5091078;28;20577;-62
2023/09/08 07:27:40;;;;;;;0.70;0.70;;;20.00;99.90;;;;;;5093310;28;20044;-62
2023/09/08 07:30:06;;;;;;;0.38;0.38;;;20.10;99.90;;;;;;5094519;28;20051;-63
2023/09/08 07:32:32;;;;;;;0.90;0.90;;;20.20;99.90;;;;;;5093207;28;20054;-63
2023/09/08 07:34:58;;;;;;;0.40;0.40;;;20.40;99.90;;;;;;5094461;28;20140;-63
2023/09/08 07:37:24;;;;;;;0.77;0.77;;;20.30;99.90;;;;;;5094444;28;20117;-63
2023/09/08 07:39:51;;;;;;;0.60;0.60;;;20.70;99.90;;;;;;5094391;28;20047;-63
2023/09/08 07:42:16;;;;;;;1.30;0.75;;;20.50;99.90;;;;;;5094367;28;20055;-63
2023/09/08 07:44:42;;;;;;;1.05;0.98;;;20.30;99.90;;;;;;5094207;28;20089;-63
2023/09/08 07:47:08;;;;;;;1.80;0.50;;;20.90;99.90;;;;;;5094222;28;20154;-62
2023/09/08 07:49:34;;;;;;;0.85;0.73;;;21.20;99.90;;;;;;5094186;28;20052;-62
2023/09/08 07:52:00;;;;;;;0.20;0.20;;;20.90;99.90;;;;;;5094165;28;20051;-62
2023/09/08 07:54:25;;;;;;;0.47;0.47;;;21.30;99.90;;;;;;5094087;28;20492;-63
2023/09/08 07:56:51;;;;;;;0.30;0.30;;;21.40;99.90;;;;;;5094084;28;20182;-62
2023/09/08 07:59:17;;;;;;;1.35;0.75;;;21.20;99.90;;;;;;5093994;28;20044;-62
2023/09/08 08:01:43;;;;;;;0.25;0.25;;;21.50;99.90;;;;;;5093927;28;20156;-63
2023/09/08 08:04:08;;;;;;;0.52;0.52;;;21.60;99.90;;;;;;5093657;28;20063;-63
2023/09/08 08:06:34;;;;;;;0.65;0.63;;;21.60;99.90;;;;;;5093686;28;20060;-63
2023/09/08 08:09:00;;;;;;;0.30;0.30;;;21.90;99.90;;;;;;5093904;28;20062;-63
2023/09/08 08:11:26;;;;;;;0.45;0.43;;;21.70;99.90;;;;;;5093802;28;20048;-62
2023/09/08 08:13:52;;;;;;;0.90;0.65;;;21.80;99.90;;;;;;5093691;28;20044;-63
2023/09/08 08:16:18;;;;;;;0.90;0.80;;;22.30;99.90;;;;;;5093759;28;20127;-63
2023/09/08 08:18:44;;;;;;;0.63;0.63;;;22.10;99.90;;;;;;5093864;28;20071;-63
2023/09/08 08:21:09;;;;;;;1.55;1.23;;;22.40;99.90;;;;;;5093774;28;20480;-63
2023/09/08 08:23:36;;;;;;;0.38;0.35;;;22.70;99.90;;;;;;5093566;28;20389;-62
2023/09/08 08:26:01;;;;;;;0.30;0.30;;;22.40;99.90;;;;;;5093519;28;20048;-63
2023/09/08 08:28:27;;;;;;;0.93;0.68;;;22.50;99.90;;;;;;5093498;28;20117;-63
2023/09/08 08:30:53;;;;;;;5.15;1.08;;;22.80;99.90;;;;;;5092358;28;20369;-62
2023/09/08 08:33:20;;;;;;;1.02;0.75;;;22.80;99.90;;;;;;5093395;28;20102;-62
2023/09/08 08:35:53;;;;;;;1.35;1.02;;;23.40;99.90;;;;;;5093200;28;20111;-63
2023/09/08 08:38:19;;;;;;;0.85;0.70;;;23.20;99.90;;;;;;5093079;28;20404;-63
2023/09/08 08:40:45;;;;;;;0.60;0.60;;;23.10;99.90;;;;;;5093205;28;20052;-62
2023/09/08 08:43:11;;;;;;;0.95;0.50;;;23.80;99.90;;;;;;5091745;28;20146;-63
2023/09/08 08:45:38;;;;;;;2.03;0.70;;;23.60;99.90;;;;;;5093037;28;20048;-62
2023/09/08 08:48:05;;;;;;;1.02;0.75;;;23.90;99.90;;;;;;5092991;28;20051;-62
2023/09/08 08:50:32;;;;;;;3.03;1.23;;;23.70;99.90;;;;;;5092924;28;20487;-62
2023/09/08 08:52:58;;;;;;;0.10;0.10;;;24.00;99.90;;;;;;5092970;28;20127;-62
2023/09/08 08:55:29;;;;;;;1.70;0.80;;;24.10;99.90;;;;;;5092898;28;20515;-62
2023/09/08 08:58:01;;;;;;;0.68;0.57;;;23.80;99.90;;;;;;5092820;28;20083;-63
2023/09/08 09:00:27;;;;;;;1.10;0.85;;;24.40;99.90;;;;;;5092832;28;20378;-63
2023/09/08 09:02:53;;;;;;;0.73;0.68;;;24.30;99.90;;;;;;5092740;28;20427;-63
2023/09/08 09:05:19;;;;;;;0.50;0.50;;;24.60;99.90;;;;;;5092538;28;20467;-63
2023/09/08 09:07:45;;;;;;;0.32;0.32;;;24.90;99.90;;;;;;5092686;28;20048;-62
2023/09/08 09:10:11;;;;;;;0.68;0.47;;;24.90;99.90;;;;;;5092657;28;20047;-62
2023/09/08 09:12:40;;;;;;;0.63;0.63;;;25.00;99.90;;;;;;5092552;28;20055;-63
2023/09/08 09:15:08;;;;;;;0.52;0.52;;;24.90;99.90;;;;;;5092495;28;20052;-63
2023/09/08 09:17:34;;;;;;;0.32;0.32;;;25.20;99.90;;;;;;5092479;28;20052;-62
2023/09/08 09:20:17;;;;;;;0.68;0.68;;;25.00;99.90;;;;;;5092401;28;20074;-62
2023/09/08 09:22:44;;;;;;;0.38;0.38;;;25.40;99.90;;;;;;5092725;28;20054;-62
2023/09/08 09:25:20;;;;;;;1.02;0.90;;;25.20;99.90;;;;;;5092418;28;20051;-63
2023/09/08 09:27:49;;;;;;;;;;;25.20;99.90;;;;;;5092765;28;20048;-64
2023/09/08 09:30:15;;;;;;;1.08;0.50;;;25.30;99.90;;;;;;5092363;28;20019;-63
2023/09/08 09:32:40;;;;;;;1.05;0.77;;;25.60;99.90;;;;;;5092560;28;20125;-63
2023/09/08 09:35:07;;;;;;;0.85;0.55;;;25.40;99.90;;;;;;5092186;28;20040;-62
2023/09/08 09:37:32;;;;;;;1.05;0.95;;;25.40;99.90;;;;;;5092269;28;20048;-62
2023/09/08 09:40:00;;;;;;;0.50;0.47;;;25.60;99.90;;;;;;5092220;28;20062;-62
2023/09/08 09:42:28;;;;;;;0.20;0.20;;;25.90;99.90;;;;;;5092109;28;20048;-63
2023/09/08 09:44:54;;;;;;;1.65;0.70;;;25.80;99.90;;;;;;5092230;28;20048;-62
2023/09/08 09:47:20;;;;;;;1.85;0.88;;;25.70;99.90;;;;;;5092442;28;20044;-62
2023/09/08 09:49:48;;;;;;;1.13;1.02;;;25.70;99.90;;;;;;5091683;28;20048;-62
2023/09/08 09:52:20;;;;;;;0.73;0.70;;;25.80;99.90;;;;;;5092016;28;20110;-62
2023/09/08 09:54:46;;;;;;;0.60;0.60;;;26.30;99.90;;;;;;5092062;28;20040;-62
2023/09/08 09:57:15;;;;;;;0.47;0.43;;;26.30;99.90;;;;;;5091982;28;20048;-63
2023/09/08 09:59:41;;;;;;;0.50;0.50;;;26.50;99.90;;;;;;5091903;28;20097;-63
2023/09/08 10:02:12;;;;;;;0.73;0.73;;;26.60;99.90;;;;;;5091601;28;20476;-63
2023/09/08 10:04:42;;;;;;;26.90;2.33;;;26.80;99.90;;;;;;5091179;28;20560;-62
2023/09/08 10:07:08;;;;;;;0.82;0.82;;;26.50;99.90;;;;;;5091814;28;20055;-63
2023/09/08 10:09:36;;;;;;;0.85;0.68;;;26.70;99.90;;;;;;5091696;28;20054;-63
2023/09/08 10:12:05;;;;;;;0.80;0.80;;;26.90;99.90;;;;;;5091716;28;20048;-62
2023/09/08 10:14:40;;;;;;;0.77;0.50;;;27.20;99.90;;;;;;5091783;28;20071;-63
2023/09/08 10:17:11;;;;;;;0.75;0.60;;;26.90;99.90;;;;;;5092058;28;20048;-64
2023/09/08 10:19:41;;;;;;;0.73;0.50;;;27.20;99.90;;;;;;5091776;28;20389;-63
2023/09/08 10:22:11;;;;;;;0.65;0.63;;;27.10;99.90;;;;;;5091677;28;20083;-63
2023/09/08 10:24:40;;;;;;;0.45;0.45;;;27.50;99.90;;;;;;5091557;28;20467;-64
2023/09/08 10:27:11;;;;;;;1.30;0.90;;;27.30;99.90;;;;;;5091316;28;20492;-63
2023/09/08 10:29:38;;;;;;;1.98;1.08;;;27.10;99.90;;;;;;5091581;28;20373;-63
2023/09/08 10:32:06;;;;;;;2.03;0.60;;;27.50;99.90;;;;;;5091528;28;20126;-63
2023/09/08 10:34:33;;;;;;;0.45;0.32;;;27.60;99.90;;;;;;5091521;28;20127;-62
2023/09/08 10:36:59;;;;;;;0.73;0.60;;;27.30;99.90;;;;;;5091520;28;20056;-63
2023/09/08 10:39:37;;;;;;;0.25;0.25;;;27.70;99.90;;;;;;5091475;28;20044;-62
2023/09/08 10:42:20;;;;;;;0.10;0.10;;;27.90;99.90;;;;;;5091530;28;20056;-63
2023/09/08 10:44:51;;;;;;;0.73;0.52;;;27.80;99.90;;;;;;5091414;28;20097;-63
2023/09/08 10:47:45;;;;;;;1.00;1.00;;;28.30;99.90;;;;;;5091466;28;20080;-63
2023/09/08 10:50:18;;;;;;;0.80;0.73;;;28.10;99.90;;;;;;5088923;28;20055;-63
2023/09/08 10:52:45;;;;;;;0.47;0.40;;;28.30;99.90;;;;;;5091534;28;20056;-63
2023/09/08 10:55:13;;;;;;;0.75;0.60;;;28.20;99.90;;;;;;5091667;28;20403;-63
2023/09/08 10:57:45;;;;;;;0.22;0.22;;;28.20;99.90;;;;;;5091692;28;20052;-63
2023/09/08 11:00:17;;;;;;;0.25;0.22;;;28.50;99.90;;;;;;5091591;28;20044;-62
2023/09/08 11:02:49;;;;;;;0.45;0.45;;;28.50;99.90;;;;;;5093806;28;20109;-62
2023/09/08 11:05:16;;;;;;;0.52;0.52;;;28.40;99.90;;;;;;5094829;28;20139;-62
2023/09/08 11:07:43;;;;;;;0.68;0.52;;;28.80;99.90;;;;;;5095090;28;20404;-62
2023/09/08 11:10:10;;;;;;;0.60;0.50;;;28.80;99.90;;;;;;5094985;28;20055;-63
2023/09/08 11:12:36;;;;;;;0.30;0.30;;;29.30;99.90;;;;;;5095042;28;20044;-62
2023/09/08 11:15:07;;;;;;;0.60;0.60;;;28.70;99.90;;;;;;5094893;28;20495;-62
2023/09/08 11:17:34;;;;;;;1.15;1.05;;;28.90;99.90;;;;;;5094899;28;20040;-63
2023/09/08 11:20:08;;;;;;;0.50;0.50;;;29.20;99.90;;;;;;5094820;28;20044;-63
2023/09/08 11:22:34;;;;;;;0.40;0.40;;;29.00;99.90;;;;;;5094794;28;20626;-63
2023/09/08 11:25:04;;;;;;;0.30;0.30;;;28.90;99.90;;;;;;5094661;28;20040;-62
2023/09/08 11:27:30;;;;;;;0.43;0.43;;;29.20;99.90;;;;;;5094649;28;20056;-63
2023/09/08 11:29:57;;;;;;;0.47;0.47;;;28.90;99.90;;;;;;5094586;28;20044;-62
2023/09/08 11:32:23;;;;;;;1.75;0.43;;;29.30;99.90;;;;;;5094559;28;20109;-63
2023/09/08 11:34:49;;;;;;;0.35;0.35;;;29.20;99.90;;;;;;5094478;28;20472;-62
2023/09/08 11:37:18;;;;;;;0.57;0.57;;;28.90;99.90;;;;;;5094537;28;20082;-62
2023/09/08 11:39:44;;;;;;;0.70;0.70;;;29.40;99.90;;;;;;5094442;28;20048;-62
2023/09/08 11:42:14;;;;;;;0.60;0.60;;;29.30;99.90;;;;;;5094424;28;20705;-62
2023/09/08 11:44:41;;;;;;;0.57;0.57;;;29.50;99.90;;;;;;5094292;28;20048;-62
2023/09/08 11:47:08;;;;;;;1.50;1.40;;;29.30;99.90;;;;;;5094284;28;20502;-63
2023/09/08 11:49:40;;;;;;;0.82;0.50;;;29.60;99.90;;;;;;5094235;28;20048;-62
2023/09/08 11:52:06;;;;;;;0.52;0.50;;;29.60;99.90;;;;;;5094120;28;20574;-63
2023/09/08 11:54:34;;;;;;;0.90;0.90;;;29.50;99.90;;;;;;5093796;28;20043;-63
2023/09/08 11:57:02;;;;;;;0.43;0.43;;;29.60;99.90;;;;;;5093819;28;20058;-63
2023/09/08 11:59:34;;;;;;;0.22;0.22;;;29.50;99.90;;;;;;5093790;28;20087;-63
2023/09/08 12:02:00;;;;;;;8.90;1.13;;;29.80;99.90;;;;;;5093792;28;20044;-62
2023/09/08 12:04:27;;;;;;;0.55;0.55;;;29.80;99.90;;;;;;5093471;28;20472;-63
2023/09/08 12:06:57;;;;;;;0.28;0.28;;;29.60;99.90;;;;;;5093600;28;20059;-62
2023/09/08 12:09:23;;;;;;;0.43;0.35;;;29.60;99.90;;;;;;5093677;28;20083;-64
2023/09/08 12:11:49;;;;;;;0.40;0.40;;;29.50;99.90;;;;;;5093779;28;20087;-63
2023/09/08 12:14:16;;;;;;;2.47;0.75;;;30.00;99.90;;;;;;5093291;28;20678;-63
2023/09/08 12:16:42;;;;;;;1.15;1.05;;;29.90;99.90;;;;;;5093537;28;20127;-63
2023/09/08 12:19:27;;;;;;;0.82;0.82;;;29.90;99.90;;;;;;5093433;28;20048;-63
2023/09/08 12:21:59;;;;;;;0.37;0.37;;;29.70;99.90;;;;;;5093477;28;20058;-63
2023/09/08 12:24:49;;;;;;;0.45;0.43;;;29.70;99.90;;;;;;5093227;28;20040;-63
2023/09/08 12:27:16;;;;;;;1.17;1.08;;;29.70;99.90;;;;;;5093220;28;20463;-62
2023/09/08 12:30:04;;;;;;;3.80;1.33;;;30.10;99.90;;;;;;5093193;28;20048;-63
2023/09/08 12:32:32;;;;;;;1.15;0.75;;;30.00;99.90;;;;;;5093149;28;20506;-62
2023/09/08 12:35:00;;;;;;;0.63;0.63;;;30.40;99.90;;;;;;5093038;28;20438;-63
2023/09/08 12:37:32;;;;;;;0.55;0.55;;;30.00;99.90;;;;;;5093005;28;20105;-63
2023/09/08 12:40:00;;;;;;;0.20;0.15;;;30.40;99.90;;;;;;5092952;28;20545;-63
2023/09/08 12:42:29;;;;;;;0.88;0.88;;;30.40;99.90;;;;;;5092937;28;20490;-63
2023/09/08 12:44:55;;;;;;;0.47;0.47;;;30.40;99.90;;;;;;5092817;28;20047;-63
2023/09/08 12:47:21;;;;;;;0.63;0.63;;;30.60;99.90;;;;;;5092928;28;20063;-63
2023/09/08 12:49:47;;;;;;;0.85;0.85;;;30.40;99.90;;;;;;5092827;28;20388;-63